sensor_id;sensor_type;location;lat;lon;timestamp;P1;durP1;ratioP1;P2;durP2;ratioP2
34928;SDS011;21133;48.048;7.724;2022-12-10T00:00:08;21.20;;;11.27;;
34928;SDS011;21133;48.048;7.724;2022-12-10T00:02:34;14.33;;;11.43;;
34928;SDS011;21133;48.048;7.724;2022-12-10T00:05:00;16.73;;;9.30;;
34928;SDS011;21133;48.048;7.724;2022-12-10T00:07:26;13.53;;;9.93;;
34928;SDS011;21133;48.048;7.724;2022-12-10T00:09:52;15.33;;;9.70;;
34928;SDS011;21133;48.048;7.724;2022-12-10T00:12:18;12.10;;;10.83;;
34928;SDS011;21133;48.048;7.724;2022-12-10T00:14:44;14.17;;;10.23;;
34928;SDS011;21133;48.048;7.724;2022-12-10T00:17:10;18.03;;;10.70;;
34928;SDS011;21133;48.048;7.724;2022-12-10T00:19:36;14.47;;;11.20;;
34928;SDS011;21133;48.048;7.724;2022-12-10T00:22:01;11.27;;;9.67;;
34928;SDS011;21133;48.048;7.724;2022-12-10T00:24:27;15.40;;;12.40;;
34928;SDS011;21133;48.048;7.724;2022-12-10T00:26:53;13.63;;;10.43;;
34928;SDS011;21133;48.048;7.724;2022-12-10T00:29:19;11.97;;;10.33;;
34928;SDS011;21133;48.048;7.724;2022-12-10T00:31:45;19.07;;;11.13;;
34928;SDS011;21133;48.048;7.724;2022-12-10T00:34:12;14.23;;;11.07;;
34928;SDS011;21133;48.048;7.724;2022-12-10T00:36:42;23.83;;;9.87;;
34928;SDS011;21133;48.048;7.724;2022-12-10T00:39:09;12.47;;;10.00;;
34928;SDS011;21133;48.048;7.724;2022-12-10T00:41:35;13.37;;;10.43;;
34928;SDS011;21133;48.048;7.724;2022-12-10T00:44:01;15.03;;;10.87;;
34928;SDS011;21133;48.048;7.724;2022-12-10T00:46:27;14.60;;;10.60;;
34928;SDS011;21133;48.048;7.724;2022-12-10T00:48:55;9.87;;;8.87;;
34928;SDS011;21133;48.048;7.724;2022-12-10T00:51:22;23.13;;;10.67;;
34928;SDS011;21133;48.048;7.724;2022-12-10T00:53:49;12.50;;;9.90;;
34928;SDS011;21133;48.048;7.724;2022-12-10T00:56:16;13.43;;;10.43;;
34928;SDS011;21133;48.048;7.724;2022-12-10T00:58:42;15.53;;;11.50;;
34928;SDS011;21133;48.048;7.724;2022-12-10T01:01:26;18.60;;;10.80;;
34928;SDS011;21133;48.048;7.724;2022-12-10T01:03:53;15.43;;;11.17;;
34928;SDS011;21133;48.048;7.724;2022-12-10T01:06:22;14.63;;;10.60;;
34928;SDS011;21133;48.048;7.724;2022-12-10T01:08:49;14.60;;;10.33;;
34928;SDS011;21133;48.048;7.724;2022-12-10T01:11:16;14.43;;;11.57;;
34928;SDS011;21133;48.048;7.724;2022-12-10T01:13:43;14.57;;;11.57;;
34928;SDS011;21133;48.048;7.724;2022-12-10T01:16:10;17.93;;;10.80;;
34928;SDS011;21133;48.048;7.724;2022-12-10T01:18:37;15.73;;;10.60;;
34928;SDS011;21133;48.048;7.724;2022-12-10T01:21:04;14.00;;;10.67;;
34928;SDS011;21133;48.048;7.724;2022-12-10T01:23:31;17.30;;;11.27;;
34928;SDS011;21133;48.048;7.724;2022-12-10T01:26:01;16.57;;;10.70;;
34928;SDS011;21133;48.048;7.724;2022-12-10T01:28:30;17.00;;;10.80;;
34928;SDS011;21133;48.048;7.724;2022-12-10T01:30:59;10.83;;;9.70;;
34928;SDS011;21133;48.048;7.724;2022-12-10T01:33:25;12.67;;;9.30;;
34928;SDS011;21133;48.048;7.724;2022-12-10T01:35:50;20.00;;;10.00;;
34928;SDS011;21133;48.048;7.724;2022-12-10T01:38:17;14.67;;;9.13;;
34928;SDS011;21133;48.048;7.724;2022-12-10T01:40:42;13.77;;;9.80;;
34928;SDS011;21133;48.048;7.724;2022-12-10T01:43:11;12.93;;;10.30;;
34928;SDS011;21133;48.048;7.724;2022-12-10T01:45:39;11.17;;;10.07;;
34928;SDS011;21133;48.048;7.724;2022-12-10T01:48:05;13.10;;;10.83;;
34928;SDS011;21133;48.048;7.724;2022-12-10T01:50:31;12.83;;;10.83;;
34928;SDS011;21133;48.048;7.724;2022-12-10T01:52:57;22.17;;;10.27;;
34928;SDS011;21133;48.048;7.724;2022-12-10T01:55:40;14.37;;;10.47;;
34928;SDS011;21133;48.048;7.724;2022-12-10T01:58:06;15.97;;;9.37;;
34928;SDS011;21133;48.048;7.724;2022-12-10T02:00:33;15.80;;;10.23;;
34928;SDS011;21133;48.048;7.724;2022-12-10T02:03:04;15.00;;;10.50;;
34928;SDS011;21133;48.048;7.724;2022-12-10T02:05:36;11.33;;;9.33;;
34928;SDS011;21133;48.048;7.724;2022-12-10T02:08:11;14.00;;;10.83;;
34928;SDS011;21133;48.048;7.724;2022-12-10T02:13:40;14.20;;;10.80;;
34928;SDS011;21133;48.048;7.724;2022-12-10T02:16:17;16.20;;;11.03;;
34928;SDS011;21133;48.048;7.724;2022-12-10T02:19:03;17.33;;;10.90;;
34928;SDS011;21133;48.048;7.724;2022-12-10T02:21:34;14.60;;;10.73;;
34928;SDS011;21133;48.048;7.724;2022-12-10T02:24:03;15.83;;;11.83;;
34928;SDS011;21133;48.048;7.724;2022-12-10T02:26:33;17.73;;;11.27;;
34928;SDS011;21133;48.048;7.724;2022-12-10T02:29:17;13.63;;;10.40;;
34928;SDS011;21133;48.048;7.724;2022-12-10T02:31:44;13.70;;;10.90;;
34928;SDS011;21133;48.048;7.724;2022-12-10T02:34:11;17.03;;;12.20;;
34928;SDS011;21133;48.048;7.724;2022-12-10T02:36:39;15.53;;;11.10;;
34928;SDS011;21133;48.048;7.724;2022-12-10T02:39:10;15.87;;;10.50;;
34928;SDS011;21133;48.048;7.724;2022-12-10T02:41:37;11.70;;;9.70;;
34928;SDS011;21133;48.048;7.724;2022-12-10T02:44:06;12.43;;;10.63;;
34928;SDS011;21133;48.048;7.724;2022-12-10T02:46:33;16.60;;;11.10;;
34928;SDS011;21133;48.048;7.724;2022-12-10T02:49:01;12.93;;;10.43;;
34928;SDS011;21133;48.048;7.724;2022-12-10T02:51:27;12.57;;;9.87;;
34928;SDS011;21133;48.048;7.724;2022-12-10T02:54:04;11.00;;;10.00;;
34928;SDS011;21133;48.048;7.724;2022-12-10T03:06:46;13.47;;;10.63;;
34928;SDS011;21133;48.048;7.724;2022-12-10T03:09:17;12.20;;;10.20;;
34928;SDS011;21133;48.048;7.724;2022-12-10T03:11:45;10.80;;;9.70;;
34928;SDS011;21133;48.048;7.724;2022-12-10T03:14:14;15.43;;;10.50;;
34928;SDS011;21133;48.048;7.724;2022-12-10T03:16:45;12.80;;;10.63;;
34928;SDS011;21133;48.048;7.724;2022-12-10T03:19:14;14.87;;;10.33;;
34928;SDS011;21133;48.048;7.724;2022-12-10T03:21:42;12.33;;;10.23;;
34928;SDS011;21133;48.048;7.724;2022-12-10T03:24:10;10.50;;;9.17;;
34928;SDS011;21133;48.048;7.724;2022-12-10T03:26:39;12.43;;;10.27;;
34928;SDS011;21133;48.048;7.724;2022-12-10T03:29:08;12.93;;;10.80;;
34928;SDS011;21133;48.048;7.724;2022-12-10T03:31:34;16.03;;;10.27;;
34928;SDS011;21133;48.048;7.724;2022-12-10T03:34:02;11.70;;;9.90;;
34928;SDS011;21133;48.048;7.724;2022-12-10T03:36:28;15.97;;;10.60;;
34928;SDS011;21133;48.048;7.724;2022-12-10T03:38:55;15.87;;;11.10;;
34928;SDS011;21133;48.048;7.724;2022-12-10T03:41:21;17.00;;;11.33;;
34928;SDS011;21133;48.048;7.724;2022-12-10T03:43:57;14.50;;;10.80;;
34928;SDS011;21133;48.048;7.724;2022-12-10T03:46:24;21.33;;;9.73;;
34928;SDS011;21133;48.048;7.724;2022-12-10T03:48:50;13.33;;;10.90;;
34928;SDS011;21133;48.048;7.724;2022-12-10T03:51:16;16.43;;;11.07;;
34928;SDS011;21133;48.048;7.724;2022-12-10T03:53:42;14.67;;;10.33;;
34928;SDS011;21133;48.048;7.724;2022-12-10T03:56:09;12.73;;;9.60;;
34928;SDS011;21133;48.048;7.724;2022-12-10T03:58:35;13.23;;;10.03;;
34928;SDS011;21133;48.048;7.724;2022-12-10T04:01:02;12.60;;;10.00;;
34928;SDS011;21133;48.048;7.724;2022-12-10T04:03:28;14.23;;;11.33;;
34928;SDS011;21133;48.048;7.724;2022-12-10T04:06:00;14.03;;;11.10;;
34928;SDS011;21133;48.048;7.724;2022-12-10T04:08:26;11.20;;;9.87;;
34928;SDS011;21133;48.048;7.724;2022-12-10T04:10:52;13.83;;;10.30;;
34928;SDS011;21133;48.048;7.724;2022-12-10T04:13:18;11.70;;;10.13;;
34928;SDS011;21133;48.048;7.724;2022-12-10T04:16:02;16.83;;;9.97;;
34928;SDS011;21133;48.048;7.724;2022-12-10T04:18:47;12.20;;;10.10;;
34928;SDS011;21133;48.048;7.724;2022-12-10T04:21:13;12.50;;;9.97;;
34928;SDS011;21133;48.048;7.724;2022-12-10T04:23:57;12.60;;;10.53;;
34928;SDS011;21133;48.048;7.724;2022-12-10T04:26:42;14.10;;;10.80;;
34928;SDS011;21133;48.048;7.724;2022-12-10T04:29:25;17.33;;;10.90;;
34928;SDS011;21133;48.048;7.724;2022-12-10T04:31:51;12.57;;;10.70;;
34928;SDS011;21133;48.048;7.724;2022-12-10T04:34:17;12.43;;;9.60;;
34928;SDS011;21133;48.048;7.724;2022-12-10T04:36:44;11.30;;;9.70;;
34928;SDS011;21133;48.048;7.724;2022-12-10T04:39:10;12.93;;;10.43;;
34928;SDS011;21133;48.048;7.724;2022-12-10T04:41:37;12.63;;;10.47;;
34928;SDS011;21133;48.048;7.724;2022-12-10T04:44:03;16.70;;;9.87;;
34928;SDS011;21133;48.048;7.724;2022-12-10T04:46:29;13.90;;;11.40;;
34928;SDS011;21133;48.048;7.724;2022-12-10T04:48:55;17.50;;;10.63;;
34928;SDS011;21133;48.048;7.724;2022-12-10T04:51:21;10.73;;;9.53;;
34928;SDS011;21133;48.048;7.724;2022-12-10T04:53:47;13.77;;;9.60;;
34928;SDS011;21133;48.048;7.724;2022-12-10T04:56:13;20.07;;;12.07;;
34928;SDS011;21133;48.048;7.724;2022-12-10T04:58:39;23.00;;;14.03;;
34928;SDS011;21133;48.048;7.724;2022-12-10T05:01:06;32.47;;;17.23;;
34928;SDS011;21133;48.048;7.724;2022-12-10T05:03:33;20.13;;;12.77;;
34928;SDS011;21133;48.048;7.724;2022-12-10T05:06:06;19.43;;;12.37;;
34928;SDS011;21133;48.048;7.724;2022-12-10T05:08:33;15.00;;;10.77;;
34928;SDS011;21133;48.048;7.724;2022-12-10T05:11:06;17.00;;;11.50;;
34928;SDS011;21133;48.048;7.724;2022-12-10T05:13:32;12.23;;;10.17;;
34928;SDS011;21133;48.048;7.724;2022-12-10T05:16:01;16.67;;;11.63;;
34928;SDS011;21133;48.048;7.724;2022-12-10T05:18:27;10.97;;;9.20;;
34928;SDS011;21133;48.048;7.724;2022-12-10T05:20:53;13.73;;;10.60;;
34928;SDS011;21133;48.048;7.724;2022-12-10T05:23:19;12.37;;;10.80;;
34928;SDS011;21133;48.048;7.724;2022-12-10T05:26:01;15.83;;;11.13;;
34928;SDS011;21133;48.048;7.724;2022-12-10T05:28:28;15.93;;;10.90;;
34928;SDS011;21133;48.048;7.724;2022-12-10T05:30:54;17.10;;;10.40;;
34928;SDS011;21133;48.048;7.724;2022-12-10T05:33:20;14.17;;;10.70;;
34928;SDS011;21133;48.048;7.724;2022-12-10T05:35:59;18.23;;;11.80;;
34928;SDS011;21133;48.048;7.724;2022-12-10T05:38:26;19.73;;;11.73;;
34928;SDS011;21133;48.048;7.724;2022-12-10T05:40:52;13.70;;;10.93;;
34928;SDS011;21133;48.048;7.724;2022-12-10T05:43:18;17.70;;;11.83;;
34928;SDS011;21133;48.048;7.724;2022-12-10T05:45:44;17.57;;;12.70;;
34928;SDS011;21133;48.048;7.724;2022-12-10T05:48:11;15.20;;;11.67;;
34928;SDS011;21133;48.048;7.724;2022-12-10T05:50:37;19.67;;;12.60;;
34928;SDS011;21133;48.048;7.724;2022-12-10T05:53:03;16.03;;;11.43;;
34928;SDS011;21133;48.048;7.724;2022-12-10T05:55:29;15.57;;;11.50;;
34928;SDS011;21133;48.048;7.724;2022-12-10T05:57:56;18.20;;;10.57;;
34928;SDS011;21133;48.048;7.724;2022-12-10T06:00:22;19.63;;;12.00;;
34928;SDS011;21133;48.048;7.724;2022-12-10T06:02:49;21.20;;;15.20;;
34928;SDS011;21133;48.048;7.724;2022-12-10T06:05:15;25.30;;;16.90;;
34928;SDS011;21133;48.048;7.724;2022-12-10T06:07:41;21.73;;;14.40;;
34928;SDS011;21133;48.048;7.724;2022-12-10T06:10:07;20.17;;;14.80;;
34928;SDS011;21133;48.048;7.724;2022-12-10T06:12:33;22.07;;;14.17;;
34928;SDS011;21133;48.048;7.724;2022-12-10T06:14:59;23.70;;;13.63;;
34928;SDS011;21133;48.048;7.724;2022-12-10T06:17:25;20.40;;;14.87;;
34928;SDS011;21133;48.048;7.724;2022-12-10T06:19:51;23.93;;;14.80;;
34928;SDS011;21133;48.048;7.724;2022-12-10T06:22:17;20.80;;;13.83;;
34928;SDS011;21133;48.048;7.724;2022-12-10T06:24:43;19.33;;;15.43;;
34928;SDS011;21133;48.048;7.724;2022-12-10T06:27:09;20.40;;;13.40;;
34928;SDS011;21133;48.048;7.724;2022-12-10T06:29:35;23.63;;;15.37;;
34928;SDS011;21133;48.048;7.724;2022-12-10T06:32:01;22.50;;;14.17;;
34928;SDS011;21133;48.048;7.724;2022-12-10T06:34:27;27.50;;;16.03;;
34928;SDS011;21133;48.048;7.724;2022-12-10T06:36:53;20.20;;;13.90;;
34928;SDS011;21133;48.048;7.724;2022-12-10T06:39:19;25.87;;;15.87;;
34928;SDS011;21133;48.048;7.724;2022-12-10T06:41:45;25.30;;;15.20;;
34928;SDS011;21133;48.048;7.724;2022-12-10T06:44:11;24.40;;;14.53;;
34928;SDS011;21133;48.048;7.724;2022-12-10T06:46:39;24.17;;;13.27;;
34928;SDS011;21133;48.048;7.724;2022-12-10T06:49:05;24.70;;;15.73;;
34928;SDS011;21133;48.048;7.724;2022-12-10T06:51:32;24.17;;;14.60;;
34928;SDS011;21133;48.048;7.724;2022-12-10T06:53:57;25.83;;;15.67;;
34928;SDS011;21133;48.048;7.724;2022-12-10T06:56:24;21.40;;;14.10;;
34928;SDS011;21133;48.048;7.724;2022-12-10T06:58:50;24.30;;;15.23;;
34928;SDS011;21133;48.048;7.724;2022-12-10T07:01:21;26.90;;;14.80;;
34928;SDS011;21133;48.048;7.724;2022-12-10T07:03:51;25.00;;;16.97;;
34928;SDS011;21133;48.048;7.724;2022-12-10T07:06:17;24.83;;;15.67;;
34928;SDS011;21133;48.048;7.724;2022-12-10T07:08:43;23.87;;;15.03;;
34928;SDS011;21133;48.048;7.724;2022-12-10T07:11:10;21.83;;;13.40;;
34928;SDS011;21133;48.048;7.724;2022-12-10T07:13:37;19.20;;;13.03;;
34928;SDS011;21133;48.048;7.724;2022-12-10T07:16:03;21.47;;;14.87;;
34928;SDS011;21133;48.048;7.724;2022-12-10T07:18:29;21.70;;;15.57;;
34928;SDS011;21133;48.048;7.724;2022-12-10T07:20:55;25.40;;;15.77;;
34928;SDS011;21133;48.048;7.724;2022-12-10T07:23:21;21.73;;;14.23;;
34928;SDS011;21133;48.048;7.724;2022-12-10T07:25:47;23.17;;;14.67;;
34928;SDS011;21133;48.048;7.724;2022-12-10T07:28:13;25.73;;;14.83;;
34928;SDS011;21133;48.048;7.724;2022-12-10T07:30:39;20.33;;;14.40;;
34928;SDS011;21133;48.048;7.724;2022-12-10T07:33:05;25.97;;;15.40;;
34928;SDS011;21133;48.048;7.724;2022-12-10T07:35:31;19.30;;;13.17;;
34928;SDS011;21133;48.048;7.724;2022-12-10T07:37:57;22.70;;;13.70;;
34928;SDS011;21133;48.048;7.724;2022-12-10T07:40:23;21.03;;;13.50;;
34928;SDS011;21133;48.048;7.724;2022-12-10T07:42:49;20.87;;;13.30;;
34928;SDS011;21133;48.048;7.724;2022-12-10T07:45:15;27.47;;;14.37;;
34928;SDS011;21133;48.048;7.724;2022-12-10T07:47:41;26.27;;;16.00;;
34928;SDS011;21133;48.048;7.724;2022-12-10T07:50:07;19.33;;;13.70;;
34928;SDS011;21133;48.048;7.724;2022-12-10T07:52:33;30.00;;;15.90;;
34928;SDS011;21133;48.048;7.724;2022-12-10T07:54:59;35.03;;;17.33;;
34928;SDS011;21133;48.048;7.724;2022-12-10T07:57:25;42.70;;;20.17;;
34928;SDS011;21133;48.048;7.724;2022-12-10T07:59:51;40.00;;;19.57;;
34928;SDS011;21133;48.048;7.724;2022-12-10T08:02:17;34.80;;;16.87;;
34928;SDS011;21133;48.048;7.724;2022-12-10T08:04:43;23.53;;;14.60;;
34928;SDS011;21133;48.048;7.724;2022-12-10T08:07:09;23.47;;;14.07;;
34928;SDS011;21133;48.048;7.724;2022-12-10T08:09:35;26.03;;;15.73;;
34928;SDS011;21133;48.048;7.724;2022-12-10T08:12:01;21.07;;;14.40;;
34928;SDS011;21133;48.048;7.724;2022-12-10T08:14:26;19.80;;;15.23;;
34928;SDS011;21133;48.048;7.724;2022-12-10T08:16:52;20.90;;;14.77;;
34928;SDS011;21133;48.048;7.724;2022-12-10T08:19:18;23.70;;;15.60;;
34928;SDS011;21133;48.048;7.724;2022-12-10T08:21:44;26.63;;;16.07;;
34928;SDS011;21133;48.048;7.724;2022-12-10T08:24:10;25.73;;;16.83;;
34928;SDS011;21133;48.048;7.724;2022-12-10T08:26:36;25.80;;;16.80;;
34928;SDS011;21133;48.048;7.724;2022-12-10T08:29:03;28.33;;;17.93;;
34928;SDS011;21133;48.048;7.724;2022-12-10T08:31:29;23.30;;;17.23;;
34928;SDS011;21133;48.048;7.724;2022-12-10T08:33:55;27.67;;;16.60;;
34928;SDS011;21133;48.048;7.724;2022-12-10T08:36:22;22.57;;;16.10;;
34928;SDS011;21133;48.048;7.724;2022-12-10T08:38:48;27.17;;;15.90;;
34928;SDS011;21133;48.048;7.724;2022-12-10T08:41:15;24.27;;;15.47;;
34928;SDS011;21133;48.048;7.724;2022-12-10T08:43:41;21.77;;;15.27;;
34928;SDS011;21133;48.048;7.724;2022-12-10T08:46:07;24.57;;;15.57;;
34928;SDS011;21133;48.048;7.724;2022-12-10T08:48:34;28.30;;;15.37;;
34928;SDS011;21133;48.048;7.724;2022-12-10T08:51:00;24.50;;;15.60;;
34928;SDS011;21133;48.048;7.724;2022-12-10T08:53:26;27.00;;;15.70;;
34928;SDS011;21133;48.048;7.724;2022-12-10T08:55:52;27.50;;;15.20;;
34928;SDS011;21133;48.048;7.724;2022-12-10T08:58:19;28.23;;;16.80;;
34928;SDS011;21133;48.048;7.724;2022-12-10T09:00:45;25.10;;;15.20;;
34928;SDS011;21133;48.048;7.724;2022-12-10T09:03:12;27.07;;;16.83;;
34928;SDS011;21133;48.048;7.724;2022-12-10T09:05:38;28.07;;;16.27;;
34928;SDS011;21133;48.048;7.724;2022-12-10T09:08:04;26.67;;;15.57;;
34928;SDS011;21133;48.048;7.724;2022-12-10T09:10:30;22.73;;;15.80;;
34928;SDS011;21133;48.048;7.724;2022-12-10T09:12:56;26.50;;;15.67;;
34928;SDS011;21133;48.048;7.724;2022-12-10T09:15:22;28.90;;;16.40;;
34928;SDS011;21133;48.048;7.724;2022-12-10T09:17:48;27.40;;;16.77;;
34928;SDS011;21133;48.048;7.724;2022-12-10T09:20:14;22.90;;;15.77;;
34928;SDS011;21133;48.048;7.724;2022-12-10T09:22:40;26.00;;;16.73;;
34928;SDS011;21133;48.048;7.724;2022-12-10T09:25:06;20.53;;;14.10;;
34928;SDS011;21133;48.048;7.724;2022-12-10T09:27:35;24.00;;;13.53;;
34928;SDS011;21133;48.048;7.724;2022-12-10T09:30:02;27.63;;;16.47;;
34928;SDS011;21133;48.048;7.724;2022-12-10T09:32:28;33.03;;;14.67;;
34928;SDS011;21133;48.048;7.724;2022-12-10T09:34:54;27.47;;;16.27;;
34928;SDS011;21133;48.048;7.724;2022-12-10T09:37:20;24.60;;;15.87;;
34928;SDS011;21133;48.048;7.724;2022-12-10T09:39:46;28.60;;;18.83;;
34928;SDS011;21133;48.048;7.724;2022-12-10T09:42:15;24.50;;;17.87;;
34928;SDS011;21133;48.048;7.724;2022-12-10T09:44:48;31.23;;;21.20;;
34928;SDS011;21133;48.048;7.724;2022-12-10T09:47:16;27.33;;;17.33;;
34928;SDS011;21133;48.048;7.724;2022-12-10T09:49:58;24.83;;;17.47;;
34928;SDS011;21133;48.048;7.724;2022-12-10T09:52:36;25.50;;;17.10;;
34928;SDS011;21133;48.048;7.724;2022-12-10T09:55:13;28.53;;;21.50;;
34928;SDS011;21133;48.048;7.724;2022-12-10T09:57:47;26.57;;;16.00;;
34928;SDS011;21133;48.048;7.724;2022-12-10T10:00:33;21.67;;;14.37;;
34928;SDS011;21133;48.048;7.724;2022-12-10T10:02:59;18.83;;;13.77;;
34928;SDS011;21133;48.048;7.724;2022-12-10T10:05:27;21.33;;;13.97;;
34928;SDS011;21133;48.048;7.724;2022-12-10T10:07:55;23.20;;;14.40;;
34928;SDS011;21133;48.048;7.724;2022-12-10T10:10:31;23.17;;;15.97;;
34928;SDS011;21133;48.048;7.724;2022-12-10T10:13:10;24.07;;;15.90;;
34928;SDS011;21133;48.048;7.724;2022-12-10T10:15:39;26.47;;;20.60;;
34928;SDS011;21133;48.048;7.724;2022-12-10T10:18:17;19.23;;;15.47;;
34928;SDS011;21133;48.048;7.724;2022-12-10T10:20:45;21.50;;;15.20;;
34928;SDS011;21133;48.048;7.724;2022-12-10T10:23:13;22.93;;;14.73;;
34928;SDS011;21133;48.048;7.724;2022-12-10T10:25:40;19.33;;;14.23;;
34928;SDS011;21133;48.048;7.724;2022-12-10T10:28:09;21.30;;;14.93;;
34928;SDS011;21133;48.048;7.724;2022-12-10T10:30:37;20.80;;;15.40;;
34928;SDS011;21133;48.048;7.724;2022-12-10T10:33:08;19.50;;;13.50;;
34928;SDS011;21133;48.048;7.724;2022-12-10T10:35:40;48.77;;;28.10;;
34928;SDS011;21133;48.048;7.724;2022-12-10T10:38:07;20.80;;;14.30;;
34928;SDS011;21133;48.048;7.724;2022-12-10T10:40:42;27.70;;;19.60;;
34928;SDS011;21133;48.048;7.724;2022-12-10T10:43:13;23.30;;;15.93;;
34928;SDS011;21133;48.048;7.724;2022-12-10T10:45:41;28.47;;;15.50;;
34928;SDS011;21133;48.048;7.724;2022-12-10T10:50:41;22.07;;;14.90;;
34928;SDS011;21133;48.048;7.724;2022-12-10T10:55:49;29.70;;;18.90;;
34928;SDS011;21133;48.048;7.724;2022-12-10T10:58:18;26.33;;;15.80;;
34928;SDS011;21133;48.048;7.724;2022-12-10T11:01:01;38.83;;;21.47;;
34928;SDS011;21133;48.048;7.724;2022-12-10T11:03:28;26.00;;;15.30;;
34928;SDS011;21133;48.048;7.724;2022-12-10T11:05:56;22.53;;;14.07;;
34928;SDS011;21133;48.048;7.724;2022-12-10T11:08:23;19.97;;;14.23;;
34928;SDS011;21133;48.048;7.724;2022-12-10T11:10:51;25.03;;;19.13;;
34928;SDS011;21133;48.048;7.724;2022-12-10T11:15:47;29.10;;;17.73;;
34928;SDS011;21133;48.048;7.724;2022-12-10T11:18:23;32.73;;;18.80;;
34928;SDS011;21133;48.048;7.724;2022-12-10T11:21:23;22.80;;;16.60;;
34928;SDS011;21133;48.048;7.724;2022-12-10T11:23:46;32.20;;;19.53;;
34928;SDS011;21133;48.048;7.724;2022-12-10T11:34:36;30.10;;;17.97;;
34928;SDS011;21133;48.048;7.724;2022-12-10T11:37:03;25.83;;;16.50;;
34928;SDS011;21133;48.048;7.724;2022-12-10T11:42:03;21.17;;;15.03;;
34928;SDS011;21133;48.048;7.724;2022-12-10T11:49:28;23.53;;;14.70;;
34928;SDS011;21133;48.048;7.724;2022-12-10T11:52:03;22.47;;;15.40;;
34928;SDS011;21133;48.048;7.724;2022-12-10T11:54:53;19.00;;;14.20;;
34928;SDS011;21133;48.048;7.724;2022-12-10T12:12:45;26.33;;;16.40;;
34928;SDS011;21133;48.048;7.724;2022-12-10T12:15:21;32.97;;;21.97;;
34928;SDS011;21133;48.048;7.724;2022-12-10T12:17:53;24.57;;;15.47;;
34928;SDS011;21133;48.048;7.724;2022-12-10T12:20:24;24.17;;;14.77;;
34928;SDS011;21133;48.048;7.724;2022-12-10T12:22:55;20.30;;;14.47;;
34928;SDS011;21133;48.048;7.724;2022-12-10T12:25:30;32.13;;;17.37;;
34928;SDS011;21133;48.048;7.724;2022-12-10T12:28:04;22.67;;;15.40;;
34928;SDS011;21133;48.048;7.724;2022-12-10T12:30:32;26.10;;;15.67;;
34928;SDS011;21133;48.048;7.724;2022-12-10T12:36:02;18.50;;;14.40;;
34928;SDS011;21133;48.048;7.724;2022-12-10T12:41:28;23.57;;;16.27;;
34928;SDS011;21133;48.048;7.724;2022-12-10T12:46:39;19.60;;;14.23;;
34928;SDS011;21133;48.048;7.724;2022-12-10T12:49:13;20.03;;;14.60;;
34928;SDS011;21133;48.048;7.724;2022-12-10T12:52:02;18.33;;;14.40;;
34928;SDS011;21133;48.048;7.724;2022-12-10T12:54:27;20.20;;;14.20;;
34928;SDS011;21133;48.048;7.724;2022-12-10T12:59:57;16.43;;;12.60;;
34928;SDS011;21133;48.048;7.724;2022-12-10T13:02:43;21.83;;;13.97;;
34928;SDS011;21133;48.048;7.724;2022-12-10T13:05:14;17.37;;;13.30;;
34928;SDS011;21133;48.048;7.724;2022-12-10T13:07:41;18.70;;;13.70;;
34928;SDS011;21133;48.048;7.724;2022-12-10T13:12:49;19.27;;;14.17;;
34928;SDS011;21133;48.048;7.724;2022-12-10T13:15:32;22.00;;;14.23;;
34928;SDS011;21133;48.048;7.724;2022-12-10T13:20:41;23.27;;;14.57;;
34928;SDS011;21133;48.048;7.724;2022-12-10T13:28:31;20.37;;;14.77;;
34928;SDS011;21133;48.048;7.724;2022-12-10T13:31:08;17.53;;;13.03;;
34928;SDS011;21133;48.048;7.724;2022-12-10T13:36:23;16.23;;;14.53;;
34928;SDS011;21133;48.048;7.724;2022-12-10T13:38:57;21.93;;;13.70;;
34928;SDS011;21133;48.048;7.724;2022-12-10T13:41:23;17.73;;;13.00;;
34928;SDS011;21133;48.048;7.724;2022-12-10T13:44:24;15.97;;;13.10;;
34928;SDS011;21133;48.048;7.724;2022-12-10T13:47:01;16.07;;;12.50;;
34928;SDS011;21133;48.048;7.724;2022-12-10T13:49:30;16.37;;;13.40;;
34928;SDS011;21133;48.048;7.724;2022-12-10T14:05:20;16.90;;;12.47;;
34928;SDS011;21133;48.048;7.724;2022-12-10T14:07:50;15.07;;;13.20;;
34928;SDS011;21133;48.048;7.724;2022-12-10T14:10:16;15.53;;;12.23;;
34928;SDS011;21133;48.048;7.724;2022-12-10T14:12:43;17.83;;;14.00;;
34928;SDS011;21133;48.048;7.724;2022-12-10T14:15:21;17.37;;;13.63;;
34928;SDS011;21133;48.048;7.724;2022-12-10T14:17:49;23.77;;;11.87;;
34928;SDS011;21133;48.048;7.724;2022-12-10T14:20:20;18.70;;;15.98;;
34928;SDS011;21133;48.048;7.724;2022-12-10T14:22:49;17.93;;;13.83;;
34928;SDS011;21133;48.048;7.724;2022-12-10T14:25:16;20.43;;;13.80;;
34928;SDS011;21133;48.048;7.724;2022-12-10T14:27:43;16.03;;;13.37;;
34928;SDS011;21133;48.048;7.724;2022-12-10T14:30:20;17.00;;;13.57;;
34928;SDS011;21133;48.048;7.724;2022-12-10T14:32:46;17.93;;;12.53;;
34928;SDS011;21133;48.048;7.724;2022-12-10T14:35:13;14.33;;;11.60;;
34928;SDS011;21133;48.048;7.724;2022-12-10T14:37:41;17.87;;;12.73;;
34928;SDS011;21133;48.048;7.724;2022-12-10T14:40:08;16.47;;;13.57;;
34928;SDS011;21133;48.048;7.724;2022-12-10T14:42:38;13.30;;;11.57;;
34928;SDS011;21133;48.048;7.724;2022-12-10T14:45:05;15.33;;;11.03;;
34928;SDS011;21133;48.048;7.724;2022-12-10T14:47:36;14.97;;;11.73;;
34928;SDS011;21133;48.048;7.724;2022-12-10T14:50:03;16.90;;;12.73;;
34928;SDS011;21133;48.048;7.724;2022-12-10T14:52:33;15.53;;;12.47;;
34928;SDS011;21133;48.048;7.724;2022-12-10T14:55:04;15.63;;;12.43;;
34928;SDS011;21133;48.048;7.724;2022-12-10T14:57:31;16.50;;;13.07;;
34928;SDS011;21133;48.048;7.724;2022-12-10T15:00:07;28.03;;;18.00;;
34928;SDS011;21133;48.048;7.724;2022-12-10T15:02:34;24.50;;;15.60;;
34928;SDS011;21133;48.048;7.724;2022-12-10T15:05:01;19.80;;;13.03;;
34928;SDS011;21133;48.048;7.724;2022-12-10T15:07:31;14.87;;;12.50;;
34928;SDS011;21133;48.048;7.724;2022-12-10T15:10:04;17.80;;;12.60;;
34928;SDS011;21133;48.048;7.724;2022-12-10T15:12:38;15.83;;;12.57;;
34928;SDS011;21133;48.048;7.724;2022-12-10T15:15:12;20.97;;;16.40;;
34928;SDS011;21133;48.048;7.724;2022-12-10T15:17:43;30.20;;;20.13;;
34928;SDS011;21133;48.048;7.724;2022-12-10T15:20:18;26.13;;;17.37;;
34928;SDS011;21133;48.048;7.724;2022-12-10T15:22:44;19.80;;;16.43;;
34928;SDS011;21133;48.048;7.724;2022-12-10T15:25:14;24.85;;;19.50;;
34928;SDS011;21133;48.048;7.724;2022-12-10T15:27:51;21.20;;;16.33;;
34928;SDS011;21133;48.048;7.724;2022-12-10T15:30:21;20.40;;;15.20;;
34928;SDS011;21133;48.048;7.724;2022-12-10T15:32:48;16.47;;;12.70;;
34928;SDS011;21133;48.048;7.724;2022-12-10T15:35:14;22.03;;;14.90;;
34928;SDS011;21133;48.048;7.724;2022-12-10T15:37:41;14.40;;;11.60;;
34928;SDS011;21133;48.048;7.724;2022-12-10T15:40:24;16.67;;;11.30;;
34928;SDS011;21133;48.048;7.724;2022-12-10T15:42:51;14.50;;;11.17;;
34928;SDS011;21133;48.048;7.724;2022-12-10T15:47:46;14.87;;;11.10;;
34928;SDS011;21133;48.048;7.724;2022-12-10T15:50:12;17.50;;;12.77;;
34928;SDS011;21133;48.048;7.724;2022-12-10T15:52:39;18.57;;;13.40;;
34928;SDS011;21133;48.048;7.724;2022-12-10T15:55:05;17.30;;;12.97;;
34928;SDS011;21133;48.048;7.724;2022-12-10T15:57:32;24.70;;;15.37;;
34928;SDS011;21133;48.048;7.724;2022-12-10T16:00:04;22.70;;;13.50;;
34928;SDS011;21133;48.048;7.724;2022-12-10T16:02:41;21.50;;;13.73;;
34928;SDS011;21133;48.048;7.724;2022-12-10T16:05:13;19.53;;;13.80;;